Aérodrome :
LOGIN :

S'inscrire | Disclaimer

   EN    FR    IT 

 










Légende :    VFR   VFR Marginal   IFR   IFR Intensif   IFR Très Intensif
Visi : 
Plafond : 
>= 8 km
>= 3000ft
5 à 8 km
1000 à 3000 ft
1500m à 5 km
500 à 1000 ft
800 à 1500m
200 à 500 ft
< 800m
< 200 ft
Symboles :   Orages  Brouillard  Fortes neiges  Fortes précipitations  Vent > 20 kt
SIGMETs :   Divers  Orages  Givrage  Turbulence  Onde Orograph.  Cendres Volcan.







- Altitude de l'aérodrome : 138 ft
- Code IATA : BIO


LEBB - Bilbao

DERNIER METAR :
  • 212200Z 13001KT CAVOK 15/15 Q1015 NOSIG

METARs EXPIRÉS :
  • 212130Z VRB02KT CAVOK 16/15 Q1015 NOSIG
  • 212100Z 12004KT 090V150 CAVOK 17/16 Q1015 NOSIG
  • 212030Z 10003KT 9999 FEW020 17/16 Q1015 NOSIG
  • 212000Z VRB02KT 9999 FEW020 17/16 Q1015 NOSIG
  • 211930Z VRB01KT 9999 FEW020 18/16 Q1014 NOSIG

TAF TAF LEBB
Valide du 21 à 18h jusqu'au 22 à 18h UTC


211700Z 2118/2218 VRB03KT 9999 BKN030 TX23/2215Z TN15/2204Z
BECMG 2210/2212 32010KT
TEMPO 2212/2218 32015G25KT
PROB40
TEMPO 2215/2218 3000 -RADZ BKN012
Pas de NOTAMs connus pour ce terrain.
1 SIGMET publié pour la FIR Madrid (LECM) :
 
Orages noyés dans la masse
LECM SIGMET 8 VALID 212026/212300 LEVA
LECM MADRID FIR/UIR EMBD TS OBS AT 2021Z WI N4240 W002 - N4140 W002 - N4120 W00050 - N4250 W00030 TOP FL400 MOV ENE 10KT NC=



MET'MAP, la Météo Aéronautique d'un coup d'oeil ! - Copyright ORBIFLY Décembre 2007 - Disclaimer

ORBIFLY MET'MAP TEAM :

Programmation & Développement : Alexandra Zaïnal
Conception & Développement : Baudouin d'Aumeries
Co-Programmation & Développement : Marc-Olivier Méhu
Soutien technique & logistique : Manuel Goepfert

Contact : metmap@orbifly.com




SOURCES & CREDITS :

   NOAA